North Central West Virginia Airport
KCKB : now visible

Airfield :











YOU CAN JOIN US ON...

 
LOGIN :

Register | Disclaimer

   EN    FR    IT 

 









Legend :    VFR   Marginal VFR   IFR   Intensive IFR   Very Intensive IFR
Visi :
Ceiling :
>= 8 km
>= 3000ft
5 to 8 km
1000 to 3000 ft
1500m to 5 km
500 to 1000 ft
800 to 1500m
200 to 500 ft
< 800m
< 200 ft
Symbols :   Thunderstorms  Fog  Heavy snow  Heavy precipitations  Wind > 20 kt






- Airport Elevation : 1217 ft
- IATA code : CKB


KCKB - North Central West Virginia

CURRENT METAR :
  • 251920Z 01006KT 1 1/2SM BR OVC002 01/01 A2993 RMK AO2 T00110006

EXPIRED METARs :
  • 251903Z 03005KT 1 3/4SM BR OVC002 01/01 A2993 RMK AO2 T00110011
  • 251853Z 02005KT 2 1/2SM BR OVC003 01/01 A2992 RMK AO2 SLP138 T00110011
  • 251753Z 05004KT 4SM BR OVC002 02/01 A2996 RMK AO2 PRESFR SLP148 T00170011 10017 20000 58028
  • 251653Z 02003KT 3SM BR OVC002 01/01 A3001 RMK AO2 SLP169 T00110006
  • 251639Z 03004KT 4SM BR OVC002 01/01 A3002 RMK AO2 T00110006

TAF KCKB
Valid from the 25 at 18:00 until the 26 at 18:00 UTC


251728Z 2518/2618 VRB03KT 3SM BR OVC002
FM252000 VRB03KT 3SM -RA BR OVC005
FM260700 14005KT 3SM -SHRA OVC009
FM261500 23009G17KT 5SM BR BKN012
KZOB FIR / North America



MET'MAP, your aeronautical weather chart ! - Copyright ORBIFLY December 2007 - Disclaimer

ORBIFLY MET'MAP TEAM :

Programming & Development : Alexandra Zaïnal
Concept & original design : Baudouin d'Aumeries
Assistance for programming : Marc-Olivier Méhu
Technical & hardware support : Manuel Goepfert

Contact : metmap@orbifly.com




SOURCES & CREDITS :

   NOAA       Earth
Advisory